createdAt,value
2023-06-17T00:00:23.023Z,0.00
2023-06-17T00:01:22.860Z,0.00
2023-06-17T00:02:23.054Z,0.00
2023-06-17T00:03:22.815Z,0.00
2023-06-17T00:04:22.731Z,0.00
2023-06-17T00:05:22.665Z,0.00
2023-06-17T00:06:23.927Z,0.00
2023-06-17T00:07:22.974Z,0.00
2023-06-17T00:08:22.656Z,0.00
2023-06-17T00:09:22.998Z,0.00
2023-06-17T00:10:22.745Z,0.00
2023-06-17T00:11:22.615Z,0.00
2023-06-17T00:12:22.619Z,0.00
2023-06-17T00:13:22.618Z,0.00
2023-06-17T00:14:23.572Z,0.00
2023-06-17T00:15:22.588Z,0.00
2023-06-17T00:16:22.533Z,0.00
2023-06-17T00:17:22.619Z,0.00
2023-06-17T00:18:22.549Z,0.00
2023-06-17T00:19:22.510Z,0.00
2023-06-17T00:20:22.773Z,0.00
2023-06-17T00:21:22.495Z,0.00
2023-06-17T00:22:22.528Z,0.00
2023-06-17T00:23:22.554Z,0.00
2023-06-17T00:24:22.522Z,0.00
2023-06-17T00:25:22.495Z,0.00
2023-06-17T00:26:22.417Z,0.00
2023-06-17T00:27:22.430Z,0.00
2023-06-17T00:28:22.389Z,0.00
2023-06-17T00:29:22.406Z,0.00
2023-06-17T00:30:22.707Z,0.00
2023-06-17T00:31:22.361Z,0.00
2023-06-17T00:32:22.409Z,0.00
2023-06-17T00:33:22.355Z,0.00
2023-06-17T00:34:22.328Z,0.00
2023-06-17T00:35:22.302Z,0.00
2023-06-17T00:36:22.323Z,0.00
2023-06-17T00:37:22.295Z,0.00
2023-06-17T00:38:22.308Z,0.00
2023-06-17T00:39:22.262Z,0.00
2023-06-17T00:40:22.547Z,0.00
2023-06-17T00:41:22.315Z,0.00
2023-06-17T00:42:22.235Z,0.00
2023-06-17T00:43:22.253Z,0.00
2023-06-17T00:44:22.275Z,0.00
2023-06-17T00:45:22.195Z,0.00
2023-06-17T00:46:22.211Z,0.00
2023-06-17T00:47:22.222Z,0.00
2023-06-17T00:48:22.232Z,0.00
2023-06-17T00:49:22.166Z,0.00
2023-06-17T00:50:22.371Z,0.00
2023-06-17T00:51:22.153Z,0.00
2023-06-17T00:52:40.316Z,0.00
2023-06-17T00:53:23.103Z,0.00
2023-06-17T00:54:22.130Z,0.00
2023-06-17T00:55:23.642Z,0.00
2023-06-17T00:56:22.126Z,0.00
2023-06-17T00:57:22.073Z,0.00
2023-06-17T00:58:22.057Z,0.00
2023-06-17T00:59:22.043Z,0.00
2023-06-17T01:00:22.315Z,0.00
2023-06-17T01:01:22.060Z,0.00
2023-06-17T01:02:22.016Z,0.00
2023-06-17T01:03:22.146Z,0.00
2023-06-17T01:04:22.009Z,0.00
2023-06-17T01:05:21.997Z,0.00
2023-06-17T01:06:21.956Z,0.00
2023-06-17T01:07:21.976Z,0.00
2023-06-17T01:08:21.964Z,0.00
2023-06-17T01:09:21.931Z,0.00
2023-06-17T01:10:22.220Z,0.00
2023-06-17T01:11:21.916Z,0.00
2023-06-17T01:12:21.890Z,0.00
2023-06-17T01:13:21.860Z,0.00
2023-06-17T01:14:21.892Z,0.00
2023-06-17T01:15:21.867Z,0.00
2023-06-17T01:16:21.910Z,0.00
2023-06-17T01:17:21.865Z,0.00
2023-06-17T01:18:21.852Z,0.00
2023-06-17T01:19:21.800Z,0.00
2023-06-17T01:20:22.101Z,0.00
2023-06-17T01:21:21.797Z,0.00
2023-06-17T01:22:21.806Z,0.00
2023-06-17T01:23:21.777Z,0.00
2023-06-17T01:24:21.808Z,0.00
2023-06-17T01:25:21.838Z,0.00
2023-06-17T01:26:21.748Z,0.00
2023-06-17T01:27:21.833Z,0.00
2023-06-17T01:28:21.890Z,0.00
2023-06-17T01:29:21.698Z,0.00
2023-06-17T01:30:21.899Z,0.00
2023-06-17T01:31:21.750Z,0.00
2023-06-17T01:32:21.698Z,0.00
2023-06-17T01:33:21.676Z,0.00
2023-06-17T01:34:21.621Z,0.00
2023-06-17T01:35:21.647Z,0.00
2023-06-17T01:36:21.648Z,0.00
2023-06-17T01:37:21.592Z,0.00
2023-06-17T01:38:21.583Z,0.00
2023-06-17T01:39:21.561Z,0.00
2023-06-17T01:40:22.015Z,0.00
2023-06-17T01:41:21.589Z,0.00
2023-06-17T01:42:21.549Z,0.00
2023-06-17T01:43:21.545Z,0.00
2023-06-17T01:44:21.557Z,0.00
2023-06-17T01:45:21.535Z,0.00
2023-06-17T01:46:21.520Z,0.00
2023-06-17T01:47:21.505Z,0.00
2023-06-17T01:48:21.469Z,0.00
2023-06-17T01:49:21.512Z,0.00
2023-06-17T01:50:21.684Z,0.00
2023-06-17T01:51:21.459Z,0.00
2023-06-17T01:52:21.409Z,0.00
2023-06-17T01:53:21.408Z,0.00
2023-06-17T01:54:21.428Z,0.00
2023-06-17T01:55:21.405Z,0.00
2023-06-17T01:56:21.450Z,0.00
2023-06-17T01:57:21.347Z,0.00
2023-06-17T01:58:21.343Z,0.00
2023-06-17T01:59:21.327Z,0.00
2023-06-17T02:00:21.636Z,0.00
2023-06-17T02:01:21.305Z,0.00
2023-06-17T02:02:21.342Z,0.00
2023-06-17T02:03:21.451Z,0.00
2023-06-17T02:04:21.316Z,0.00
2023-06-17T02:05:21.365Z,0.00
2023-06-17T02:06:21.284Z,0.00
2023-06-17T02:07:21.260Z,0.00
2023-06-17T02:08:21.270Z,0.00
2023-06-17T02:09:21.251Z,0.00
2023-06-17T02:10:21.523Z,0.00
2023-06-17T02:11:21.205Z,0.00
2023-06-17T02:12:21.188Z,0.00
2023-06-17T02:13:21.246Z,0.00
2023-06-17T02:14:21.161Z,0.00
2023-06-17T02:15:21.168Z,0.00
2023-06-17T02:16:21.259Z,0.00
2023-06-17T02:17:21.125Z,0.00
2023-06-17T02:18:21.134Z,0.00
2023-06-17T02:19:21.131Z,0.00
2023-06-17T02:20:21.423Z,0.00
2023-06-17T02:21:21.118Z,0.00
2023-06-17T02:22:21.107Z,0.00
2023-06-17T02:23:21.144Z,0.00
2023-06-17T02:24:21.099Z,0.00
2023-06-17T02:25:21.090Z,0.00
2023-06-17T02:26:21.113Z,0.00
2023-06-17T02:27:21.027Z,0.00
2023-06-17T02:28:21.000Z,0.00
2023-06-17T02:29:21.063Z,0.00
2023-06-17T02:30:21.274Z,0.00
2023-06-17T02:31:21.015Z,0.00
2023-06-17T02:32:20.965Z,0.00
2023-06-17T02:33:20.952Z,0.00
2023-06-17T02:34:20.928Z,0.00
2023-06-17T02:35:21.000Z,0.00
2023-06-17T02:36:20.911Z,0.00
2023-06-17T02:37:20.893Z,0.00
2023-06-17T02:38:20.893Z,0.00
2023-06-17T02:39:20.916Z,0.00
2023-06-17T02:40:21.131Z,0.00
2023-06-17T02:41:20.873Z,0.00
2023-06-17T02:42:20.855Z,0.00
2023-06-17T02:43:20.852Z,0.00
2023-06-17T02:44:20.808Z,0.00
2023-06-17T02:45:20.847Z,0.00
2023-06-17T02:46:20.876Z,0.00
2023-06-17T02:47:20.804Z,0.00
2023-06-17T02:48:20.794Z,0.00
2023-06-17T02:49:20.763Z,0.00
2023-06-17T02:50:21.078Z,5.62
2023-06-17T02:51:20.747Z,5.62
2023-06-17T02:52:20.768Z,5.62
2023-06-17T02:53:20.757Z,5.62
2023-06-17T02:54:20.697Z,5.62
2023-06-17T02:55:20.730Z,5.62
2023-06-17T02:56:20.689Z,5.62
2023-06-17T02:57:20.677Z,11.25
2023-06-17T02:58:20.683Z,11.25
2023-06-17T02:59:20.635Z,11.25
2023-06-17T03:00:20.854Z,11.25
2023-06-17T03:01:20.692Z,11.25
2023-06-17T03:02:20.680Z,11.25
2023-06-17T03:03:20.665Z,16.88
2023-06-17T03:04:20.601Z,16.88
2023-06-17T03:05:20.612Z,16.88
2023-06-17T03:06:20.569Z,16.88
2023-06-17T03:07:20.594Z,16.88
2023-06-17T03:08:20.568Z,16.88
2023-06-17T03:09:20.537Z,22.50
2023-06-17T03:10:20.846Z,22.50
2023-06-17T03:11:20.521Z,22.50
2023-06-17T03:12:20.565Z,28.12
2023-06-17T03:13:20.474Z,28.12
2023-06-17T03:14:20.661Z,33.75
2023-06-17T03:15:20.536Z,39.38
2023-06-17T03:16:20.447Z,39.38
2023-06-17T03:17:20.459Z,45.00
2023-06-17T03:18:20.831Z,45.00
2023-06-17T03:19:20.430Z,50.62
2023-06-17T03:20:20.836Z,56.25
2023-06-17T03:21:20.377Z,56.25
2023-06-17T03:22:20.428Z,61.88
2023-06-17T03:23:20.381Z,61.88
2023-06-17T03:24:20.412Z,61.88
2023-06-17T03:25:20.386Z,67.50
2023-06-17T03:26:20.333Z,73.12
2023-06-17T03:27:20.343Z,73.12
2023-06-17T03:28:20.343Z,78.75
2023-06-17T03:29:20.308Z,78.75
2023-06-17T03:30:20.521Z,84.38
2023-06-17T03:31:20.362Z,84.38
2023-06-17T03:32:20.267Z,90.00
2023-06-17T03:33:20.253Z,90.00
2023-06-17T03:34:20.268Z,95.62
2023-06-17T03:35:20.216Z,95.62
2023-06-17T03:36:20.270Z,101.25
2023-06-17T03:37:20.211Z,101.25
2023-06-17T03:38:20.195Z,106.88
2023-06-17T03:39:20.226Z,112.50
2023-06-17T03:40:20.390Z,118.12
2023-06-17T03:41:20.160Z,118.12
2023-06-17T03:42:20.199Z,118.12
2023-06-17T03:43:20.155Z,123.75
2023-06-17T03:44:20.149Z,123.75
2023-06-17T03:45:20.124Z,129.38
2023-06-17T03:46:20.114Z,129.38
2023-06-17T03:47:20.119Z,123.75
2023-06-17T03:48:20.099Z,129.38
2023-06-17T03:49:20.152Z,129.38
2023-06-17T03:50:20.439Z,140.62
2023-06-17T03:51:20.062Z,146.25
2023-06-17T03:52:20.067Z,151.88
2023-06-17T03:53:20.041Z,157.50
2023-06-17T03:54:20.055Z,163.12
2023-06-17T03:55:20.056Z,163.12
2023-06-17T03:56:20.044Z,168.75
2023-06-17T03:57:19.997Z,168.75
2023-06-17T03:58:19.979Z,168.75
2023-06-17T03:59:21.033Z,168.75
2023-06-17T04:00:20.247Z,168.75
2023-06-17T04:01:20.018Z,168.75
2023-06-17T04:02:20.017Z,168.75
2023-06-17T04:03:20.029Z,163.12
2023-06-17T04:04:19.919Z,163.12
2023-06-17T04:05:19.902Z,163.12
2023-06-17T04:06:19.880Z,157.50
2023-06-17T04:07:19.852Z,157.50
2023-06-17T04:08:19.866Z,163.12
2023-06-17T04:09:19.843Z,168.75
2023-06-17T04:10:19.869Z,174.38
2023-06-17T04:11:19.805Z,185.62
2023-06-17T04:12:19.806Z,196.88
2023-06-17T04:13:19.862Z,202.50
2023-06-17T04:14:19.805Z,208.12
2023-06-17T04:15:19.758Z,208.12
2023-06-17T04:16:19.767Z,213.75
2023-06-17T04:17:19.751Z,213.75
2023-06-17T04:18:19.842Z,219.38
2023-06-17T04:19:19.763Z,225.00
2023-06-17T04:20:19.883Z,225.00
2023-06-17T04:21:19.725Z,225.00
2023-06-17T04:22:19.724Z,225.00
2023-06-17T04:23:19.922Z,225.00
2023-06-17T04:25:29.857Z,236.25
2023-06-17T04:26:29.812Z,247.50
2023-06-17T04:27:29.861Z,253.12
2023-06-17T04:28:29.803Z,258.75
2023-06-17T04:29:29.788Z,258.75
2023-06-17T04:30:29.792Z,264.38
2023-06-17T04:31:29.798Z,264.38
2023-06-17T04:32:29.777Z,264.38
2023-06-17T04:33:29.780Z,275.62
2023-06-17T04:34:29.750Z,275.62
2023-06-17T04:35:29.764Z,275.62
2023-06-17T04:36:29.696Z,275.62
2023-06-17T04:37:29.682Z,281.25
2023-06-17T04:38:29.732Z,292.50
2023-06-17T04:39:29.692Z,292.50
2023-06-17T04:40:29.651Z,286.88
2023-06-17T04:41:29.695Z,281.25
2023-06-17T04:42:29.636Z,258.75
2023-06-17T04:43:29.642Z,253.12
2023-06-17T04:44:29.605Z,241.88
2023-06-17T04:45:29.671Z,225.00
2023-06-17T04:46:29.656Z,213.75
2023-06-17T04:47:29.649Z,219.38
2023-06-17T04:48:29.567Z,225.00
2023-06-17T04:49:29.565Z,241.88
2023-06-17T04:50:29.576Z,258.75
2023-06-17T04:51:29.676Z,264.38
2023-06-17T04:52:29.541Z,264.38
2023-06-17T04:53:29.522Z,264.38
2023-06-17T04:54:29.541Z,253.12
2023-06-17T04:55:29.490Z,247.50
2023-06-17T04:56:29.477Z,236.25
2023-06-17T04:57:29.494Z,230.62
2023-06-17T04:58:29.493Z,241.88
2023-06-17T04:59:29.439Z,247.50
2023-06-17T05:00:29.441Z,264.38
2023-06-17T05:01:29.530Z,281.25
2023-06-17T05:02:29.482Z,286.88
2023-06-17T05:03:29.405Z,292.50
2023-06-17T05:04:29.391Z,298.12
2023-06-17T05:05:29.386Z,303.75
2023-06-17T05:06:29.369Z,303.75
2023-06-17T05:07:29.381Z,309.38
2023-06-17T05:08:29.342Z,309.38
2023-06-17T05:09:29.373Z,309.38
2023-06-17T05:10:29.330Z,309.38
2023-06-17T05:11:29.351Z,320.62
2023-06-17T05:12:29.306Z,315.00
2023-06-17T05:13:29.275Z,354.38
2023-06-17T05:14:29.275Z,348.75
2023-06-17T05:15:29.286Z,360.00
2023-06-17T05:16:29.276Z,376.88
2023-06-17T05:17:29.290Z,427.50
2023-06-17T05:18:29.218Z,461.25
2023-06-17T05:19:29.208Z,438.75
2023-06-17T05:20:29.228Z,444.38
2023-06-17T05:21:29.185Z,388.12
2023-06-17T05:22:29.214Z,376.88
2023-06-17T05:23:29.191Z,371.25
2023-06-17T05:24:29.247Z,320.62
2023-06-17T05:25:29.360Z,343.12
2023-06-17T05:26:29.139Z,376.88
2023-06-17T05:27:29.135Z,371.25
2023-06-17T05:28:29.110Z,309.38
2023-06-17T05:29:29.103Z,315.00
2023-06-17T05:30:29.155Z,320.62
2023-06-17T05:31:29.082Z,371.25
2023-06-17T05:32:29.093Z,478.12
2023-06-17T05:33:29.076Z,500.62
2023-06-17T05:34:29.044Z,511.88
2023-06-17T05:35:29.056Z,568.12
2023-06-17T05:36:29.042Z,573.75
2023-06-17T05:37:29.015Z,585.00
2023-06-17T05:38:29.046Z,618.75
2023-06-17T05:39:29.018Z,911.25
2023-06-17T05:40:28.978Z,1243.12
2023-06-17T05:41:28.985Z,1288.12
2023-06-17T05:42:28.955Z,1321.88
2023-06-17T05:43:28.948Z,1383.75
2023-06-17T05:44:28.977Z,1423.12
2023-06-17T05:45:28.909Z,1417.50
2023-06-17T05:46:28.954Z,1383.75
2023-06-17T05:47:28.933Z,1389.38
2023-06-17T05:48:28.888Z,1423.12
2023-06-17T05:49:28.868Z,1434.38
2023-06-17T05:50:28.863Z,1445.62
2023-06-17T05:51:28.905Z,1417.50
2023-06-17T05:52:28.815Z,1417.50
2023-06-17T05:53:28.831Z,1456.88
2023-06-17T05:54:28.820Z,1530.00
2023-06-17T05:55:28.791Z,1524.38
2023-06-17T05:56:28.811Z,1569.38
2023-06-17T05:57:28.798Z,1591.88
2023-06-17T05:58:28.787Z,1603.12
2023-06-17T05:59:28.746Z,1676.25
2023-06-17T06:00:28.739Z,1687.50
2023-06-17T06:01:28.784Z,1721.25
2023-06-17T06:02:28.773Z,776.25
2023-06-17T06:03:28.722Z,1215.00
2023-06-17T06:04:28.701Z,1805.62
2023-06-17T06:05:28.672Z,1980.00
2023-06-17T06:06:28.704Z,2002.50
2023-06-17T06:07:28.691Z,1940.62
2023-06-17T06:08:28.666Z,1839.38
2023-06-17T06:09:28.632Z,1546.88
2023-06-17T06:10:28.702Z,1918.12
2023-06-17T06:11:28.665Z,1946.25
2023-06-17T06:12:28.642Z,1906.88
2023-06-17T06:13:28.631Z,1957.50
2023-06-17T06:14:28.573Z,1940.62
2023-06-17T06:15:28.582Z,1974.38
2023-06-17T06:16:28.592Z,1985.62
2023-06-17T06:17:28.632Z,1929.38
2023-06-17T06:18:28.529Z,1940.62
2023-06-17T06:19:28.550Z,2019.38
2023-06-17T06:20:28.613Z,2098.12
2023-06-17T06:21:28.512Z,2143.12
2023-06-17T06:22:28.508Z,2075.62
2023-06-17T06:23:28.524Z,2002.50
2023-06-17T06:24:28.523Z,1912.50
2023-06-17T06:25:28.459Z,585.00
2023-06-17T06:26:28.479Z,590.62
2023-06-17T06:27:28.457Z,1406.25
2023-06-17T06:28:28.492Z,1794.38
2023-06-17T06:29:28.445Z,1963.12
2023-06-17T06:30:28.417Z,680.62
2023-06-17T06:31:28.385Z,753.75
2023-06-17T06:32:28.462Z,714.38
2023-06-17T06:33:28.399Z,551.25
2023-06-17T06:34:28.424Z,534.38
2023-06-17T06:35:28.350Z,579.38
2023-06-17T06:36:28.328Z,770.62
2023-06-17T06:37:28.340Z,2199.38
2023-06-17T06:38:28.349Z,2216.25
2023-06-17T06:39:28.335Z,2171.25
2023-06-17T06:40:28.421Z,1681.88
2023-06-17T06:41:28.270Z,1957.50
2023-06-17T06:42:28.286Z,2188.12
2023-06-17T06:43:28.290Z,1473.75
2023-06-17T06:44:28.308Z,708.75
2023-06-17T06:45:28.294Z,506.25
2023-06-17T06:46:28.375Z,489.38
2023-06-17T06:47:28.273Z,500.62
2023-06-17T06:48:28.235Z,511.88
2023-06-17T06:49:28.211Z,534.38
2023-06-17T06:50:28.255Z,686.25
2023-06-17T06:51:28.178Z,1946.25
2023-06-17T06:52:28.176Z,1411.88
2023-06-17T06:53:28.135Z,2536.88
2023-06-17T06:54:28.164Z,2418.75
2023-06-17T06:55:28.140Z,2221.88
2023-06-17T06:56:28.165Z,2570.62
2023-06-17T06:57:28.093Z,2458.12
2023-06-17T06:58:28.101Z,2587.50
2023-06-17T06:59:28.079Z,2643.75
2023-06-17T07:00:28.073Z,2542.50
2023-06-17T07:01:28.226Z,2435.62
2023-06-17T07:02:28.092Z,2424.38
2023-06-17T07:03:28.068Z,2413.12
2023-06-17T07:04:28.140Z,2435.62
2023-06-17T07:05:28.028Z,2520.00
2023-06-17T07:06:28.012Z,2638.12
2023-06-17T07:07:28.027Z,2480.62
2023-06-17T07:08:27.975Z,2745.00
2023-06-17T07:09:27.991Z,2716.88
2023-06-17T07:10:27.952Z,2531.25
2023-06-17T07:11:27.960Z,2756.25
2023-06-17T07:12:27.942Z,2795.62
2023-06-17T07:13:27.958Z,2880.00
2023-06-17T07:14:27.946Z,2936.25
2023-06-17T07:15:27.900Z,2829.38
2023-06-17T07:16:27.953Z,2930.62
2023-06-17T07:17:27.920Z,2936.25
2023-06-17T07:18:27.891Z,2840.62
2023-06-17T07:19:27.907Z,2908.12
2023-06-17T07:20:27.864Z,2913.75
2023-06-17T07:21:27.868Z,2941.88
2023-06-17T07:22:27.849Z,2941.88
2023-06-17T07:23:27.852Z,871.88
2023-06-17T07:24:27.861Z,3076.88
2023-06-17T07:25:27.814Z,3121.88
2023-06-17T07:26:27.850Z,3116.25
2023-06-17T07:27:27.793Z,3200.62
2023-06-17T07:28:27.767Z,3071.25
2023-06-17T07:29:27.746Z,2041.88
2023-06-17T07:30:27.796Z,1496.25
2023-06-17T07:31:27.800Z,3493.12
2023-06-17T07:32:27.834Z,1091.25
2023-06-17T07:33:27.707Z,911.25
2023-06-17T07:34:27.696Z,900.00
2023-06-17T07:35:27.699Z,2486.25
2023-06-17T07:36:27.742Z,765.00
2023-06-17T07:37:27.692Z,916.88
2023-06-17T07:38:27.668Z,798.75
2023-06-17T07:39:27.637Z,1473.75
2023-06-17T07:40:27.633Z,3408.75
2023-06-17T07:41:27.628Z,3318.75
2023-06-17T07:42:27.649Z,3183.75
2023-06-17T07:43:27.596Z,3251.25
2023-06-17T07:44:27.622Z,3166.88
2023-06-17T07:45:27.574Z,3076.88
2023-06-17T07:46:27.714Z,3155.62
2023-06-17T07:47:27.625Z,3324.38
2023-06-17T07:48:27.556Z,3228.75
2023-06-17T07:49:27.554Z,3268.12
2023-06-17T07:50:27.544Z,3318.75
2023-06-17T07:51:27.526Z,3369.38
2023-06-17T07:52:27.527Z,3341.25
2023-06-17T07:53:27.500Z,3425.62
2023-06-17T07:54:27.557Z,3465.00
2023-06-17T07:55:27.520Z,3470.62
2023-06-17T07:56:27.482Z,3133.12
2023-06-17T07:57:27.470Z,950.62
2023-06-17T07:58:27.444Z,973.12
2023-06-17T07:59:27.463Z,1164.38
2023-06-17T08:00:27.461Z,1085.62
2023-06-17T08:01:27.468Z,3735.00
2023-06-17T08:02:27.566Z,1040.62
2023-06-17T08:03:27.481Z,1423.12
2023-06-17T08:04:27.390Z,3583.12
2023-06-17T08:05:27.437Z,3566.25
2023-06-17T08:06:27.404Z,3678.75
2023-06-17T08:07:27.364Z,3791.25
2023-06-17T08:08:27.351Z,3206.25
2023-06-17T08:09:27.366Z,3346.88
2023-06-17T08:10:27.339Z,1113.75
2023-06-17T08:11:27.355Z,900.00
2023-06-17T08:12:27.308Z,871.88
2023-06-17T08:13:27.322Z,2925.00
2023-06-17T08:14:27.296Z,3926.25
2023-06-17T08:15:27.279Z,3976.88
2023-06-17T08:16:27.339Z,4033.12
2023-06-17T08:17:27.309Z,3937.50
2023-06-17T08:18:27.278Z,3780.00
2023-06-17T08:19:27.241Z,3510.00
2023-06-17T08:20:27.219Z,3684.38
2023-06-17T08:21:27.232Z,4021.88
2023-06-17T08:22:27.229Z,3898.12
2023-06-17T08:23:27.227Z,3566.25
2023-06-17T08:24:27.228Z,3774.38
2023-06-17T08:25:27.194Z,3853.12
2023-06-17T08:26:27.172Z,4055.62
2023-06-17T08:27:27.664Z,4263.75
2023-06-17T08:28:27.147Z,4145.62
2023-06-17T08:29:27.161Z,4151.25
2023-06-17T08:30:27.155Z,4173.75
2023-06-17T08:31:27.110Z,3099.38
2023-06-17T08:32:27.133Z,3768.75
2023-06-17T08:33:27.082Z,3836.25
2023-06-17T08:34:27.110Z,3093.75
2023-06-17T08:35:27.095Z,4190.62
2023-06-17T08:36:27.118Z,4325.62
2023-06-17T08:37:27.084Z,3375.00
2023-06-17T08:38:27.049Z,4179.38
2023-06-17T08:39:27.039Z,1231.88
2023-06-17T08:40:27.018Z,1755.00
2023-06-17T08:41:27.021Z,4275.00
2023-06-17T08:42:27.012Z,4218.75
2023-06-17T08:43:27.009Z,4185.00
2023-06-17T08:44:26.981Z,3285.00
2023-06-17T08:45:27.036Z,4185.00
2023-06-17T08:46:27.045Z,2655.00
2023-06-17T08:47:27.096Z,2733.75
2023-06-17T08:48:26.956Z,4123.12
2023-06-17T08:49:26.950Z,3864.38
2023-06-17T08:50:26.960Z,4027.50
2023-06-17T08:51:26.953Z,3993.75
2023-06-17T08:52:26.938Z,4100.62
2023-06-17T08:53:26.931Z,1541.25
2023-06-17T08:54:26.882Z,3920.62
2023-06-17T08:55:26.909Z,3740.62
2023-06-17T08:56:26.892Z,3920.62
2023-06-17T08:57:26.886Z,4280.62
2023-06-17T08:58:26.906Z,2660.62
2023-06-17T08:59:26.834Z,3420.00
2023-06-17T09:00:26.851Z,4460.62
2023-06-17T09:01:26.971Z,3307.50
2023-06-17T09:02:26.861Z,4297.50
2023-06-17T09:03:26.837Z,3808.12
2023-06-17T09:04:26.844Z,3791.25
2023-06-17T09:05:26.865Z,3521.25
2023-06-17T09:06:26.774Z,4466.25
2023-06-17T09:07:26.794Z,4753.12
2023-06-17T09:08:26.772Z,4123.12
2023-06-17T09:09:26.744Z,2238.75
2023-06-17T09:10:26.752Z,3999.38
2023-06-17T09:11:26.718Z,4730.62
2023-06-17T09:12:26.747Z,4055.62
2023-06-17T09:13:26.755Z,2109.38
2023-06-17T09:14:26.702Z,3172.50
2023-06-17T09:15:26.709Z,3712.50
2023-06-17T09:16:26.744Z,4168.12
2023-06-17T09:17:26.721Z,3751.88
2023-06-17T09:18:26.673Z,2311.88
2023-06-17T09:19:26.652Z,1636.88
2023-06-17T09:20:26.691Z,1890.00
2023-06-17T09:21:26.672Z,5068.12
2023-06-17T09:22:26.669Z,3583.12
2023-06-17T09:23:26.606Z,2514.38
2023-06-17T09:24:26.630Z,1653.75
2023-06-17T09:25:26.625Z,1125.00
2023-06-17T09:26:26.593Z,1040.62
2023-06-17T09:27:26.593Z,990.00
2023-06-17T09:28:26.604Z,973.12
2023-06-17T09:29:26.606Z,916.88
2023-06-17T09:30:26.551Z,871.88
2023-06-17T09:31:26.561Z,860.62
2023-06-17T09:32:26.623Z,911.25
2023-06-17T09:33:26.525Z,961.88
2023-06-17T09:34:26.496Z,1018.12
2023-06-17T09:35:26.499Z,1057.50
2023-06-17T09:36:26.473Z,1406.25
2023-06-17T09:37:26.501Z,2536.88
2023-06-17T09:38:26.501Z,1018.12
2023-06-17T09:39:26.444Z,860.62
2023-06-17T09:40:26.429Z,798.75
2023-06-17T09:41:26.423Z,697.50
2023-06-17T09:42:26.425Z,618.75
2023-06-17T09:43:28.470Z,562.50
2023-06-17T09:44:26.424Z,517.50
2023-06-17T09:45:26.389Z,489.38
2023-06-17T09:46:26.503Z,489.38
2023-06-17T09:47:26.386Z,517.50
2023-06-17T09:48:26.354Z,590.62
2023-06-17T09:49:26.362Z,652.50
2023-06-17T09:50:26.413Z,613.12
2023-06-17T09:51:26.358Z,540.00
2023-06-17T09:52:26.298Z,489.38
2023-06-17T09:53:26.366Z,466.88
2023-06-17T09:54:26.304Z,489.38
2023-06-17T09:55:26.312Z,528.75
2023-06-17T09:56:26.268Z,568.12
2023-06-17T09:57:26.245Z,624.38
2023-06-17T09:58:26.256Z,714.38
2023-06-17T09:59:26.278Z,579.38
2023-06-17T10:00:26.375Z,511.88
2023-06-17T10:01:26.223Z,466.88
2023-06-17T10:02:26.203Z,466.88
2023-06-17T10:03:26.420Z,495.00
2023-06-17T10:04:26.196Z,545.62
2023-06-17T10:05:26.184Z,691.88
2023-06-17T10:06:26.165Z,770.62
2023-06-17T10:07:26.152Z,714.38
2023-06-17T10:08:26.169Z,613.12
2023-06-17T10:09:26.144Z,624.38
2023-06-17T10:10:26.125Z,630.00
2023-06-17T10:11:26.131Z,663.75
2023-06-17T10:12:26.090Z,731.25
2023-06-17T10:13:26.109Z,804.38
2023-06-17T10:14:26.132Z,843.75
2023-06-17T10:15:26.092Z,883.12
2023-06-17T10:16:26.072Z,939.38
2023-06-17T10:17:26.073Z,888.75
2023-06-17T10:18:26.044Z,905.62
2023-06-17T10:19:26.045Z,871.88
2023-06-17T10:20:26.215Z,804.38
2023-06-17T10:21:26.069Z,742.50
2023-06-17T10:22:26.009Z,714.38
2023-06-17T10:23:26.002Z,765.00
2023-06-17T10:24:26.086Z,922.50
2023-06-17T10:25:25.962Z,1074.38
2023-06-17T10:26:25.952Z,1248.75
2023-06-17T10:27:25.962Z,2418.75
2023-06-17T10:28:25.988Z,1473.75
2023-06-17T10:29:25.947Z,1608.75
2023-06-17T10:30:25.942Z,1642.50
2023-06-17T10:31:27.593Z,1569.38
2023-06-17T10:32:26.044Z,1428.75
2023-06-17T10:33:25.875Z,1417.50
2023-06-17T10:34:25.946Z,1490.62
2023-06-17T10:35:25.856Z,1670.62
2023-06-17T10:36:25.891Z,2261.25
2023-06-17T10:37:25.829Z,2250.00
2023-06-17T10:38:25.804Z,3600.00
2023-06-17T10:39:25.844Z,3431.25
2023-06-17T10:40:26.175Z,2812.50
2023-06-17T10:41:25.798Z,3240.00
2023-06-17T10:42:25.793Z,4725.00
2023-06-17T10:43:25.778Z,2008.12
2023-06-17T10:44:25.765Z,1513.12
2023-06-17T10:45:25.739Z,1575.00
2023-06-17T10:46:25.833Z,1051.88
2023-06-17T10:47:25.770Z,916.88
2023-06-17T10:48:25.771Z,888.75
2023-06-17T10:49:25.700Z,860.62
2023-06-17T10:50:25.692Z,1091.25
2023-06-17T10:51:36.350Z,933.75
2023-06-17T10:52:26.668Z,922.50
2023-06-17T10:53:25.661Z,911.25
2023-06-17T10:54:25.696Z,888.75
2023-06-17T10:55:25.659Z,871.88
2023-06-17T10:56:25.612Z,888.75
2023-06-17T10:57:25.615Z,922.50
2023-06-17T10:58:25.653Z,916.88
2023-06-17T10:59:25.585Z,900.00
2023-06-17T11:00:25.573Z,939.38
2023-06-17T11:01:25.596Z,883.12
2023-06-17T11:02:25.609Z,680.62
2023-06-17T11:03:25.643Z,585.00
2023-06-17T11:04:25.594Z,551.25
2023-06-17T11:05:25.524Z,568.12
2023-06-17T11:06:25.534Z,658.12
2023-06-17T11:07:25.519Z,765.00
2023-06-17T11:08:25.494Z,1158.75
2023-06-17T11:09:25.477Z,1451.25
2023-06-17T11:10:25.674Z,3808.12
2023-06-17T11:11:25.470Z,1192.50
2023-06-17T11:12:25.457Z,956.25
2023-06-17T11:13:25.486Z,860.62
2023-06-17T11:14:25.429Z,945.00
2023-06-17T11:15:25.423Z,810.00
2023-06-17T11:16:25.437Z,703.12
2023-06-17T11:17:25.472Z,663.75
2023-06-17T11:18:25.411Z,630.00
2023-06-17T11:19:25.389Z,607.50
2023-06-17T11:20:25.376Z,601.88
2023-06-17T11:21:25.336Z,635.62
2023-06-17T11:22:25.342Z,714.38
2023-06-17T11:23:25.365Z,1648.12
2023-06-17T11:24:25.363Z,894.38
2023-06-17T11:25:39.783Z,3307.50
2023-06-17T11:26:26.305Z,3228.75
2023-06-17T11:27:25.268Z,4173.75
2023-06-17T11:28:25.283Z,3088.12
2023-06-17T11:29:25.292Z,1406.25
2023-06-17T11:30:25.258Z,1074.38
2023-06-17T11:31:25.332Z,1085.62
2023-06-17T11:32:25.252Z,1546.88
2023-06-17T11:33:25.206Z,1676.25
2023-06-17T11:34:25.224Z,4320.00
2023-06-17T11:35:25.198Z,4376.25
2023-06-17T11:36:25.222Z,4151.25
2023-06-17T11:37:25.192Z,3825.00
2023-06-17T11:38:25.197Z,3802.50
2023-06-17T11:39:25.196Z,3870.00
2023-06-17T11:40:25.135Z,3639.38
2023-06-17T11:41:25.131Z,2205.00
2023-06-17T11:42:25.150Z,1940.62
2023-06-17T11:43:25.136Z,1018.12
2023-06-17T11:44:25.092Z,995.62
2023-06-17T11:45:25.132Z,2086.88
2023-06-17T11:46:25.115Z,1693.12
2023-06-17T11:47:25.072Z,2340.00
2023-06-17T11:48:25.082Z,1816.88
2023-06-17T11:49:25.093Z,4089.38
2023-06-17T11:50:25.041Z,2671.88
2023-06-17T11:51:25.047Z,1276.88
2023-06-17T11:52:25.059Z,1198.12
2023-06-17T11:53:25.005Z,1063.12
2023-06-17T11:54:25.038Z,1001.25
2023-06-17T11:55:24.993Z,1018.12
2023-06-17T11:56:24.972Z,1074.38
2023-06-17T11:57:24.980Z,1029.38
2023-06-17T11:58:24.943Z,1018.12
2023-06-17T11:59:24.977Z,961.88
2023-06-17T12:00:24.948Z,894.38
2023-06-17T12:01:24.912Z,826.88
2023-06-17T12:02:25.010Z,736.88
2023-06-17T12:03:24.913Z,686.25
2023-06-17T12:04:24.942Z,669.38
2023-06-17T12:05:24.905Z,652.50
2023-06-17T12:06:24.898Z,630.00
2023-06-17T12:07:24.856Z,607.50
2023-06-17T12:08:24.848Z,601.88
2023-06-17T12:09:24.884Z,607.50
2023-06-17T12:10:24.968Z,635.62
2023-06-17T12:11:24.829Z,646.88
2023-06-17T12:12:24.826Z,618.75
2023-06-17T12:13:24.823Z,596.25
2023-06-17T12:14:24.802Z,579.38
2023-06-17T12:15:35.819Z,568.12
2023-06-17T12:16:25.793Z,551.25
2023-06-17T12:17:24.880Z,568.12
2023-06-17T12:18:24.728Z,551.25
2023-06-17T12:19:24.770Z,551.25
2023-06-17T12:20:24.716Z,556.88
2023-06-17T12:21:24.758Z,556.88
2023-06-17T12:22:24.696Z,545.62
2023-06-17T12:23:24.676Z,528.75
2023-06-17T12:24:24.720Z,517.50
2023-06-17T12:25:24.953Z,500.62
2023-06-17T12:26:24.654Z,495.00
2023-06-17T12:27:24.655Z,489.38
2023-06-17T12:28:24.732Z,478.12
2023-06-17T12:29:26.565Z,500.62
2023-06-17T12:30:24.621Z,495.00
2023-06-17T12:31:24.609Z,483.75
2023-06-17T12:32:24.608Z,517.50
2023-06-17T12:33:24.577Z,495.00